sensor_id;sensor_type;location;lat;lon;timestamp;P1;durP1;ratioP1;P2;durP2;ratioP2
12332;SDS011;6232;48.094;11.288;2023-07-13T00:01:06;5.33;;;4.83;;
12332;SDS011;6232;48.094;11.288;2023-07-13T00:03:51;6.90;;;4.83;;
12332;SDS011;6232;48.094;11.288;2023-07-13T00:06:37;6.20;;;5.30;;
12332;SDS011;6232;48.094;11.288;2023-07-13T00:09:22;6.17;;;5.30;;
12332;SDS011;6232;48.094;11.288;2023-07-13T00:12:25;7.17;;;5.20;;
12332;SDS011;6232;48.094;11.288;2023-07-13T00:15:15;6.67;;;4.73;;
12332;SDS011;6232;48.094;11.288;2023-07-13T00:18:01;7.40;;;4.60;;
12332;SDS011;6232;48.094;11.288;2023-07-13T00:20:47;7.30;;;4.40;;
12332;SDS011;6232;48.094;11.288;2023-07-13T00:23:33;6.60;;;4.83;;
12332;SDS011;6232;48.094;11.288;2023-07-13T00:26:19;5.37;;;4.80;;
12332;SDS011;6232;48.094;11.288;2023-07-13T00:29:05;5.80;;;4.80;;
12332;SDS011;6232;48.094;11.288;2023-07-13T00:31:54;5.50;;;5.00;;
12332;SDS011;6232;48.094;11.288;2023-07-13T00:34:40;6.70;;;5.30;;
12332;SDS011;6232;48.094;11.288;2023-07-13T00:37:25;8.53;;;5.07;;
12332;SDS011;6232;48.094;11.288;2023-07-13T00:40:15;11.90;;;5.03;;
12332;SDS011;6232;48.094;11.288;2023-07-13T00:43:01;8.87;;;5.73;;
12332;SDS011;6232;48.094;11.288;2023-07-13T00:48:33;7.57;;;4.67;;
12332;SDS011;6232;48.094;11.288;2023-07-13T00:51:22;8.10;;;4.60;;
12332;SDS011;6232;48.094;11.288;2023-07-13T00:54:09;5.43;;;4.93;;
12332;SDS011;6232;48.094;11.288;2023-07-13T00:56:57;5.17;;;4.67;;
12332;SDS011;6232;48.094;11.288;2023-07-13T00:59:45;6.00;;;4.50;;
12332;SDS011;6232;48.094;11.288;2023-07-13T01:02:32;6.30;;;4.60;;
12332;SDS011;6232;48.094;11.288;2023-07-13T01:05:19;10.20;;;4.63;;
12332;SDS011;6232;48.094;11.288;2023-07-13T01:08:05;5.00;;;4.50;;
12332;SDS011;6232;48.094;11.288;2023-07-13T01:10:52;4.83;;;4.40;;
12332;SDS011;6232;48.094;11.288;2023-07-13T01:13:37;4.90;;;4.23;;
12332;SDS011;6232;48.094;11.288;2023-07-13T01:16:31;4.00;;;3.60;;
12332;SDS011;6232;48.094;11.288;2023-07-13T01:19:21;5.13;;;4.00;;
12332;SDS011;6232;48.094;11.288;2023-07-13T01:22:12;4.30;;;3.90;;
12332;SDS011;6232;48.094;11.288;2023-07-13T01:24:57;3.67;;;3.37;;
12332;SDS011;6232;48.094;11.288;2023-07-13T01:27:43;5.30;;;4.00;;
12332;SDS011;6232;48.094;11.288;2023-07-13T01:30:29;6.03;;;3.73;;
12332;SDS011;6232;48.094;11.288;2023-07-13T01:33:15;5.77;;;4.50;;
12332;SDS011;6232;48.094;11.288;2023-07-13T01:36:01;4.43;;;4.03;;
12332;SDS011;6232;48.094;11.288;2023-07-13T01:38:47;4.10;;;3.70;;
12332;SDS011;6232;48.094;11.288;2023-07-13T01:41:33;6.83;;;4.17;;
12332;SDS011;6232;48.094;11.288;2023-07-13T01:44:18;4.97;;;4.27;;
12332;SDS011;6232;48.094;11.288;2023-07-13T01:47:04;8.10;;;4.33;;
12332;SDS011;6232;48.094;11.288;2023-07-13T01:49:50;7.43;;;5.17;;
12332;SDS011;6232;48.094;11.288;2023-07-13T01:52:37;5.47;;;4.97;;
12332;SDS011;6232;48.094;11.288;2023-07-13T01:55:22;8.60;;;5.13;;
12332;SDS011;6232;48.094;11.288;2023-07-13T01:58:08;16.23;;;5.83;;
12332;SDS011;6232;48.094;11.288;2023-07-13T02:00:53;8.80;;;5.20;;
12332;SDS011;6232;48.094;11.288;2023-07-13T02:03:39;9.07;;;5.33;;
12332;SDS011;6232;48.094;11.288;2023-07-13T02:06:25;7.23;;;5.47;;
12332;SDS011;6232;48.094;11.288;2023-07-13T02:09:10;6.17;;;5.57;;
12332;SDS011;6232;48.094;11.288;2023-07-13T02:11:56;7.70;;;5.67;;
12332;SDS011;6232;48.094;11.288;2023-07-13T02:14:41;8.73;;;6.67;;
12332;SDS011;6232;48.094;11.288;2023-07-13T02:17:27;6.30;;;5.70;;
12332;SDS011;6232;48.094;11.288;2023-07-13T02:20:13;7.90;;;6.00;;
12332;SDS011;6232;48.094;11.288;2023-07-13T02:22:59;8.40;;;6.80;;
12332;SDS011;6232;48.094;11.288;2023-07-13T02:25:44;11.00;;;5.60;;
12332;SDS011;6232;48.094;11.288;2023-07-13T02:28:30;9.70;;;6.20;;
12332;SDS011;6232;48.094;11.288;2023-07-13T02:31:15;10.17;;;5.37;;
12332;SDS011;6232;48.094;11.288;2023-07-13T02:34:01;13.03;;;5.13;;
12332;SDS011;6232;48.094;11.288;2023-07-13T02:36:48;6.90;;;5.40;;
12332;SDS011;6232;48.094;11.288;2023-07-13T02:39:33;7.33;;;4.73;;
12332;SDS011;6232;48.094;11.288;2023-07-13T02:42:19;6.23;;;4.90;;
12332;SDS011;6232;48.094;11.288;2023-07-13T02:45:05;5.10;;;4.13;;
12332;SDS011;6232;48.094;11.288;2023-07-13T02:47:50;4.43;;;3.70;;
12332;SDS011;6232;48.094;11.288;2023-07-13T02:50:36;4.93;;;3.30;;
12332;SDS011;6232;48.094;11.288;2023-07-13T02:53:21;5.90;;;4.40;;
12332;SDS011;6232;48.094;11.288;2023-07-13T02:56:07;5.30;;;4.10;;
12332;SDS011;6232;48.094;11.288;2023-07-13T02:58:53;5.00;;;4.30;;
12332;SDS011;6232;48.094;11.288;2023-07-13T03:01:39;7.70;;;4.30;;
12332;SDS011;6232;48.094;11.288;2023-07-13T03:04:25;6.40;;;4.70;;
12332;SDS011;6232;48.094;11.288;2023-07-13T03:07:11;4.47;;;4.07;;
12332;SDS011;6232;48.094;11.288;2023-07-13T03:09:57;10.60;;;5.03;;
12332;SDS011;6232;48.094;11.288;2023-07-13T03:12:42;10.83;;;5.03;;
12332;SDS011;6232;48.094;11.288;2023-07-13T03:15:28;6.93;;;4.97;;
12332;SDS011;6232;48.094;11.288;2023-07-13T03:18:13;6.80;;;4.60;;
12332;SDS011;6232;48.094;11.288;2023-07-13T03:20:59;5.33;;;4.73;;
12332;SDS011;6232;48.094;11.288;2023-07-13T03:23:45;5.57;;;5.00;;
12332;SDS011;6232;48.094;11.288;2023-07-13T03:26:31;5.40;;;4.60;;
12332;SDS011;6232;48.094;11.288;2023-07-13T03:29:17;8.03;;;4.70;;
12332;SDS011;6232;48.094;11.288;2023-07-13T03:32:02;5.20;;;4.27;;
12332;SDS011;6232;48.094;11.288;2023-07-13T03:34:49;9.87;;;4.97;;
12332;SDS011;6232;48.094;11.288;2023-07-13T03:37:35;6.50;;;5.80;;
12332;SDS011;6232;48.094;11.288;2023-07-13T03:40:27;6.17;;;5.30;;
12332;SDS011;6232;48.094;11.288;2023-07-13T03:43:13;8.43;;;5.73;;
12332;SDS011;6232;48.094;11.288;2023-07-13T03:45:59;7.50;;;5.17;;
12332;SDS011;6232;48.094;11.288;2023-07-13T03:48:45;5.30;;;4.80;;
12332;SDS011;6232;48.094;11.288;2023-07-13T03:51:30;7.40;;;4.20;;
12332;SDS011;6232;48.094;11.288;2023-07-13T03:54:16;3.83;;;3.50;;
12332;SDS011;6232;48.094;11.288;2023-07-13T03:57:02;5.13;;;4.07;;
12332;SDS011;6232;48.094;11.288;2023-07-13T03:59:47;4.80;;;4.30;;
12332;SDS011;6232;48.094;11.288;2023-07-13T04:02:33;4.90;;;3.97;;
12332;SDS011;6232;48.094;11.288;2023-07-13T04:05:18;4.27;;;3.80;;
12332;SDS011;6232;48.094;11.288;2023-07-13T04:08:04;6.83;;;5.00;;
12332;SDS011;6232;48.094;11.288;2023-07-13T04:10:49;5.43;;;4.33;;
12332;SDS011;6232;48.094;11.288;2023-07-13T04:13:35;4.90;;;4.43;;
12332;SDS011;6232;48.094;11.288;2023-07-13T04:16:21;6.57;;;4.57;;
12332;SDS011;6232;48.094;11.288;2023-07-13T04:19:07;6.47;;;5.00;;
12332;SDS011;6232;48.094;11.288;2023-07-13T04:21:53;4.77;;;4.37;;
12332;SDS011;6232;48.094;11.288;2023-07-13T04:24:38;8.50;;;4.30;;
12332;SDS011;6232;48.094;11.288;2023-07-13T04:27:24;5.17;;;4.33;;
12332;SDS011;6232;48.094;11.288;2023-07-13T04:30:10;7.63;;;4.73;;
12332;SDS011;6232;48.094;11.288;2023-07-13T04:32:55;5.97;;;3.90;;
12332;SDS011;6232;48.094;11.288;2023-07-13T04:35:41;6.57;;;4.43;;
12332;SDS011;6232;48.094;11.288;2023-07-13T04:38:28;7.97;;;5.30;;
12332;SDS011;6232;48.094;11.288;2023-07-13T04:41:14;6.30;;;4.40;;
12332;SDS011;6232;48.094;11.288;2023-07-13T04:44:00;5.30;;;4.40;;
12332;SDS011;6232;48.094;11.288;2023-07-13T04:46:46;4.90;;;4.40;;
12332;SDS011;6232;48.094;11.288;2023-07-13T04:49:31;7.60;;;4.53;;
12332;SDS011;6232;48.094;11.288;2023-07-13T04:52:17;8.60;;;4.13;;
12332;SDS011;6232;48.094;11.288;2023-07-13T04:55:02;7.47;;;5.63;;
12332;SDS011;6232;48.094;11.288;2023-07-13T04:57:48;5.17;;;4.57;;
12332;SDS011;6232;48.094;11.288;2023-07-13T05:00:33;4.50;;;4.10;;
12332;SDS011;6232;48.094;11.288;2023-07-13T05:03:19;7.13;;;4.33;;
12332;SDS011;6232;48.094;11.288;2023-07-13T05:06:06;6.57;;;4.30;;
12332;SDS011;6232;48.094;11.288;2023-07-13T05:08:52;5.00;;;3.93;;
12332;SDS011;6232;48.094;11.288;2023-07-13T05:11:37;6.30;;;4.10;;
12332;SDS011;6232;48.094;11.288;2023-07-13T05:14:23;5.03;;;4.53;;
12332;SDS011;6232;48.094;11.288;2023-07-13T05:17:08;5.57;;;4.67;;
12332;SDS011;6232;48.094;11.288;2023-07-13T05:19:54;6.40;;;5.00;;
12332;SDS011;6232;48.094;11.288;2023-07-13T05:22:41;8.90;;;4.50;;
12332;SDS011;6232;48.094;11.288;2023-07-13T05:25:26;6.33;;;5.50;;
12332;SDS011;6232;48.094;11.288;2023-07-13T05:28:12;6.70;;;5.60;;
12332;SDS011;6232;48.094;11.288;2023-07-13T05:30:57;8.80;;;4.83;;
12332;SDS011;6232;48.094;11.288;2023-07-13T05:33:43;7.33;;;5.67;;
12332;SDS011;6232;48.094;11.288;2023-07-13T05:36:28;6.10;;;5.37;;
12332;SDS011;6232;48.094;11.288;2023-07-13T05:39:14;7.50;;;4.37;;
12332;SDS011;6232;48.094;11.288;2023-07-13T05:42:00;5.57;;;5.00;;
12332;SDS011;6232;48.094;11.288;2023-07-13T05:44:46;5.50;;;4.90;;
12332;SDS011;6232;48.094;11.288;2023-07-13T05:47:32;9.33;;;4.77;;
12332;SDS011;6232;48.094;11.288;2023-07-13T05:50:17;7.03;;;4.93;;
12332;SDS011;6232;48.094;11.288;2023-07-13T05:53:03;5.33;;;3.70;;
12332;SDS011;6232;48.094;11.288;2023-07-13T05:55:49;5.10;;;4.10;;
12332;SDS011;6232;48.094;11.288;2023-07-13T05:58:38;3.93;;;3.53;;
12332;SDS011;6232;48.094;11.288;2023-07-13T06:01:23;6.10;;;4.50;;
12332;SDS011;6232;48.094;11.288;2023-07-13T06:04:09;7.23;;;4.23;;
12332;SDS011;6232;48.094;11.288;2023-07-13T06:06:54;4.57;;;4.10;;
12332;SDS011;6232;48.094;11.288;2023-07-13T06:09:40;5.37;;;3.90;;
12332;SDS011;6232;48.094;11.288;2023-07-13T06:12:26;3.93;;;3.27;;
12332;SDS011;6232;48.094;11.288;2023-07-13T06:15:11;4.13;;;3.43;;
12332;SDS011;6232;48.094;11.288;2023-07-13T06:17:57;3.60;;;3.23;;
12332;SDS011;6232;48.094;11.288;2023-07-13T06:20:42;4.80;;;3.23;;
12332;SDS011;6232;48.094;11.288;2023-07-13T06:23:28;5.27;;;3.30;;
12332;SDS011;6232;48.094;11.288;2023-07-13T06:26:14;6.83;;;3.93;;
12332;SDS011;6232;48.094;11.288;2023-07-13T06:28:59;9.50;;;3.97;;
12332;SDS011;6232;48.094;11.288;2023-07-13T06:31:45;5.40;;;3.67;;
12332;SDS011;6232;48.094;11.288;2023-07-13T06:34:30;4.00;;;2.97;;
12332;SDS011;6232;48.094;11.288;2023-07-13T06:37:16;3.93;;;3.53;;
12332;SDS011;6232;48.094;11.288;2023-07-13T06:40:01;5.60;;;4.00;;
12332;SDS011;6232;48.094;11.288;2023-07-13T06:42:47;5.23;;;3.47;;
12332;SDS011;6232;48.094;11.288;2023-07-13T06:45:36;5.43;;;3.77;;
12332;SDS011;6232;48.094;11.288;2023-07-13T06:48:25;6.43;;;3.77;;
12332;SDS011;6232;48.094;11.288;2023-07-13T06:51:10;7.73;;;3.90;;
12332;SDS011;6232;48.094;11.288;2023-07-13T06:53:56;5.60;;;3.67;;
12332;SDS011;6232;48.094;11.288;2023-07-13T06:56:41;6.57;;;3.40;;
12332;SDS011;6232;48.094;11.288;2023-07-13T06:59:27;4.03;;;3.60;;
12332;SDS011;6232;48.094;11.288;2023-07-13T07:02:13;5.97;;;4.10;;
12332;SDS011;6232;48.094;11.288;2023-07-13T07:04:58;4.97;;;3.70;;
12332;SDS011;6232;48.094;11.288;2023-07-13T07:07:44;5.50;;;3.23;;
12332;SDS011;6232;48.094;11.288;2023-07-13T07:10:29;5.67;;;4.10;;
12332;SDS011;6232;48.094;11.288;2023-07-13T07:13:15;7.27;;;4.20;;
12332;SDS011;6232;48.094;11.288;2023-07-13T07:16:01;10.20;;;3.40;;
12332;SDS011;6232;48.094;11.288;2023-07-13T07:18:47;4.80;;;3.50;;
12332;SDS011;6232;48.094;11.288;2023-07-13T07:21:32;6.80;;;4.10;;
12332;SDS011;6232;48.094;11.288;2023-07-13T07:24:18;4.57;;;3.43;;
12332;SDS011;6232;48.094;11.288;2023-07-13T07:27:03;3.13;;;2.90;;
12332;SDS011;6232;48.094;11.288;2023-07-13T07:29:49;4.30;;;3.77;;
12332;SDS011;6232;48.094;11.288;2023-07-13T07:32:35;6.23;;;3.93;;
12332;SDS011;6232;48.094;11.288;2023-07-13T07:35:20;6.07;;;3.80;;
12332;SDS011;6232;48.094;11.288;2023-07-13T07:38:06;7.53;;;4.03;;
12332;SDS011;6232;48.094;11.288;2023-07-13T07:40:52;6.63;;;4.40;;
12332;SDS011;6232;48.094;11.288;2023-07-13T07:43:37;3.90;;;3.50;;
12332;SDS011;6232;48.094;11.288;2023-07-13T07:46:23;6.80;;;4.50;;
12332;SDS011;6232;48.094;11.288;2023-07-13T07:49:08;8.40;;;4.03;;
12332;SDS011;6232;48.094;11.288;2023-07-13T07:51:54;4.00;;;3.30;;
12332;SDS011;6232;48.094;11.288;2023-07-13T07:54:39;4.77;;;4.27;;
12332;SDS011;6232;48.094;11.288;2023-07-13T07:57:25;5.07;;;4.10;;
12332;SDS011;6232;48.094;11.288;2023-07-13T08:00:10;6.33;;;5.77;;
12332;SDS011;6232;48.094;11.288;2023-07-13T08:02:56;4.30;;;3.30;;
12332;SDS011;6232;48.094;11.288;2023-07-13T08:05:42;4.50;;;4.07;;
12332;SDS011;6232;48.094;11.288;2023-07-13T08:08:27;8.50;;;5.30;;
12332;SDS011;6232;48.094;11.288;2023-07-13T08:11:13;6.33;;;3.73;;
12332;SDS011;6232;48.094;11.288;2023-07-13T08:13:58;6.20;;;3.73;;
12332;SDS011;6232;48.094;11.288;2023-07-13T08:16:44;5.37;;;3.53;;
12332;SDS011;6232;48.094;11.288;2023-07-13T08:19:29;3.90;;;2.97;;
12332;SDS011;6232;48.094;11.288;2023-07-13T08:22:15;3.97;;;3.57;;
12332;SDS011;6232;48.094;11.288;2023-07-13T08:25:01;3.60;;;3.30;;
12332;SDS011;6232;48.094;11.288;2023-07-13T08:27:46;4.67;;;3.10;;
12332;SDS011;6232;48.094;11.288;2023-07-13T08:30:32;2.93;;;2.63;;
12332;SDS011;6232;48.094;11.288;2023-07-13T08:33:19;6.50;;;2.90;;
12332;SDS011;6232;48.094;11.288;2023-07-13T08:36:05;3.03;;;2.53;;
12332;SDS011;6232;48.094;11.288;2023-07-13T08:38:50;4.57;;;3.00;;
12332;SDS011;6232;48.094;11.288;2023-07-13T08:41:36;2.77;;;2.57;;
12332;SDS011;6232;48.094;11.288;2023-07-13T08:44:47;7.20;;;2.77;;
12332;SDS011;6232;48.094;11.288;2023-07-13T08:47:28;12.90;;;2.73;;
12332;SDS011;6232;48.094;11.288;2023-07-13T08:50:16;4.50;;;2.83;;
12332;SDS011;6232;48.094;11.288;2023-07-13T08:53:03;4.43;;;2.30;;
12332;SDS011;6232;48.094;11.288;2023-07-13T08:55:49;4.77;;;2.90;;
12332;SDS011;6232;48.094;11.288;2023-07-13T08:58:36;3.67;;;2.60;;
12332;SDS011;6232;48.094;11.288;2023-07-13T09:04:10;6.70;;;2.90;;
12332;SDS011;6232;48.094;11.288;2023-07-13T09:07:11;3.87;;;2.50;;
12332;SDS011;6232;48.094;11.288;2023-07-13T09:12:56;2.77;;;2.23;;
12332;SDS011;6232;48.094;11.288;2023-07-13T09:15:44;5.40;;;3.10;;
12332;SDS011;6232;48.094;11.288;2023-07-13T09:18:37;3.47;;;2.90;;
12332;SDS011;6232;48.094;11.288;2023-07-13T09:21:24;7.00;;;2.83;;
12332;SDS011;6232;48.094;11.288;2023-07-13T09:24:27;3.13;;;2.83;;
12332;SDS011;6232;48.094;11.288;2023-07-13T09:27:14;2.53;;;2.07;;
12332;SDS011;6232;48.094;11.288;2023-07-13T09:30:24;2.50;;;2.30;;
12332;SDS011;6232;48.094;11.288;2023-07-13T09:33:08;7.10;;;3.10;;
12332;SDS011;6232;48.094;11.288;2023-07-13T09:35:53;3.60;;;2.57;;
12332;SDS011;6232;48.094;11.288;2023-07-13T09:38:39;4.30;;;2.47;;
12332;SDS011;6232;48.094;11.288;2023-07-13T09:44:27;6.03;;;2.43;;
12332;SDS011;6232;48.094;11.288;2023-07-13T09:47:17;2.33;;;2.07;;
12332;SDS011;6232;48.094;11.288;2023-07-13T09:50:04;3.67;;;2.07;;
12332;SDS011;6232;48.094;11.288;2023-07-13T09:52:51;3.10;;;2.10;;
12332;SDS011;6232;48.094;11.288;2023-07-13T09:55:40;9.17;;;3.03;;
12332;SDS011;6232;48.094;11.288;2023-07-13T09:58:26;2.00;;;1.90;;
12332;SDS011;6232;48.094;11.288;2023-07-13T10:01:14;2.37;;;2.17;;
12332;SDS011;6232;48.094;11.288;2023-07-13T10:04:00;5.40;;;2.07;;
12332;SDS011;6232;48.094;11.288;2023-07-13T10:06:46;5.77;;;2.50;;
12332;SDS011;6232;48.094;11.288;2023-07-13T10:09:32;3.70;;;2.17;;
12332;SDS011;6232;48.094;11.288;2023-07-13T10:12:20;4.67;;;2.30;;
12332;SDS011;6232;48.094;11.288;2023-07-13T10:15:07;1.73;;;1.63;;
12332;SDS011;6232;48.094;11.288;2023-07-13T10:17:58;5.00;;;2.57;;
12332;SDS011;6232;48.094;11.288;2023-07-13T10:20:44;2.10;;;1.73;;
12332;SDS011;6232;48.094;11.288;2023-07-13T10:23:30;7.30;;;1.90;;
12332;SDS011;6232;48.094;11.288;2023-07-13T10:26:19;1.80;;;1.70;;
12332;SDS011;6232;48.094;11.288;2023-07-13T10:29:09;1.57;;;1.47;;
12332;SDS011;6232;48.094;11.288;2023-07-13T10:31:56;6.10;;;2.00;;
12332;SDS011;6232;48.094;11.288;2023-07-13T10:34:43;2.97;;;1.80;;
12332;SDS011;6232;48.094;11.288;2023-07-13T10:37:33;4.13;;;2.10;;
12332;SDS011;6232;48.094;11.288;2023-07-13T10:40:34;2.50;;;1.60;;
12332;SDS011;6232;48.094;11.288;2023-07-13T10:43:28;6.97;;;2.30;;
12332;SDS011;6232;48.094;11.288;2023-07-13T10:46:17;2.17;;;1.97;;
12332;SDS011;6232;48.094;11.288;2023-07-13T10:49:04;3.77;;;2.40;;
12332;SDS011;6232;48.094;11.288;2023-07-13T10:51:50;8.10;;;2.37;;
12332;SDS011;6232;48.094;11.288;2023-07-13T10:54:37;4.93;;;2.13;;
12332;SDS011;6232;48.094;11.288;2023-07-13T10:57:22;3.20;;;2.20;;
12332;SDS011;6232;48.094;11.288;2023-07-13T11:00:13;2.90;;;1.80;;
12332;SDS011;6232;48.094;11.288;2023-07-13T11:03:00;2.53;;;2.33;;
12332;SDS011;6232;48.094;11.288;2023-07-13T11:05:49;4.93;;;2.40;;
12332;SDS011;6232;48.094;11.288;2023-07-13T11:11:35;7.37;;;1.73;;
12332;SDS011;6232;48.094;11.288;2023-07-13T11:14:28;5.20;;;1.90;;
12332;SDS011;6232;48.094;11.288;2023-07-13T11:25:52;2.80;;;1.70;;
12332;SDS011;6232;48.094;11.288;2023-07-13T11:28:38;5.17;;;2.17;;
12332;SDS011;6232;48.094;11.288;2023-07-13T11:31:24;2.70;;;1.80;;
12332;SDS011;6232;48.094;11.288;2023-07-13T11:34:15;1.77;;;1.63;;
12332;SDS011;6232;48.094;11.288;2023-07-13T11:37:01;4.97;;;1.83;;
12332;SDS011;6232;48.094;11.288;2023-07-13T11:39:47;1.90;;;1.77;;
12332;SDS011;6232;48.094;11.288;2023-07-13T11:42:33;2.23;;;1.60;;
12332;SDS011;6232;48.094;11.288;2023-07-13T11:45:21;2.67;;;1.63;;
12332;SDS011;6232;48.094;11.288;2023-07-13T11:48:17;2.57;;;1.50;;
12332;SDS011;6232;48.094;11.288;2023-07-13T11:51:04;7.40;;;1.73;;
12332;SDS011;6232;48.094;11.288;2023-07-13T11:53:50;3.60;;;1.93;;
12332;SDS011;6232;48.094;11.288;2023-07-13T11:56:36;3.63;;;1.53;;
12332;SDS011;6232;48.094;11.288;2023-07-13T11:59:22;5.97;;;2.13;;
12332;SDS011;6232;48.094;11.288;2023-07-13T12:02:14;4.07;;;1.80;;
12332;SDS011;6232;48.094;11.288;2023-07-13T12:05:02;2.50;;;2.00;;
12332;SDS011;6232;48.094;11.288;2023-07-13T12:07:49;8.17;;;2.50;;
12332;SDS011;6232;48.094;11.288;2023-07-13T12:10:35;4.03;;;2.07;;
12332;SDS011;6232;48.094;11.288;2023-07-13T12:13:21;8.60;;;2.30;;
12332;SDS011;6232;48.094;11.288;2023-07-13T12:16:30;7.40;;;1.83;;
12332;SDS011;6232;48.094;11.288;2023-07-13T12:19:20;2.20;;;1.50;;
12332;SDS011;6232;48.094;11.288;2023-07-13T12:22:08;8.30;;;2.07;;
12332;SDS011;6232;48.094;11.288;2023-07-13T12:24:54;3.70;;;1.67;;
12332;SDS011;6232;48.094;11.288;2023-07-13T12:27:41;3.83;;;1.90;;
12332;SDS011;6232;48.094;11.288;2023-07-13T12:30:29;3.33;;;1.60;;
12332;SDS011;6232;48.094;11.288;2023-07-13T12:33:16;5.47;;;1.77;;
12332;SDS011;6232;48.094;11.288;2023-07-13T12:36:03;2.37;;;1.30;;
12332;SDS011;6232;48.094;11.288;2023-07-13T12:38:49;2.70;;;1.40;;
12332;SDS011;6232;48.094;11.288;2023-07-13T12:41:36;5.67;;;2.00;;
12332;SDS011;6232;48.094;11.288;2023-07-13T12:44:28;4.10;;;1.60;;
12332;SDS011;6232;48.094;11.288;2023-07-13T12:47:15;3.23;;;1.50;;
12332;SDS011;6232;48.094;11.288;2023-07-13T12:50:02;2.60;;;1.30;;
12332;SDS011;6232;48.094;11.288;2023-07-13T12:52:52;5.00;;;1.97;;
12332;SDS011;6232;48.094;11.288;2023-07-13T12:58:40;7.23;;;1.50;;
12332;SDS011;6232;48.094;11.288;2023-07-13T13:01:32;1.67;;;1.20;;
12332;SDS011;6232;48.094;11.288;2023-07-13T13:04:17;5.00;;;1.57;;
12332;SDS011;6232;48.094;11.288;2023-07-13T13:07:08;4.43;;;1.37;;
12332;SDS011;6232;48.094;11.288;2023-07-13T13:09:54;3.90;;;1.50;;
12332;SDS011;6232;48.094;11.288;2023-07-13T13:12:40;2.37;;;1.40;;
12332;SDS011;6232;48.094;11.288;2023-07-13T13:15:29;3.10;;;1.50;;
12332;SDS011;6232;48.094;11.288;2023-07-13T13:18:17;6.53;;;1.50;;
12332;SDS011;6232;48.094;11.288;2023-07-13T13:21:03;2.70;;;1.43;;
12332;SDS011;6232;48.094;11.288;2023-07-13T13:23:52;3.37;;;1.30;;
12332;SDS011;6232;48.094;11.288;2023-07-13T13:26:38;2.93;;;1.47;;
12332;SDS011;6232;48.094;11.288;2023-07-13T13:29:24;2.80;;;1.20;;
12332;SDS011;6232;48.094;11.288;2023-07-13T13:32:13;3.73;;;1.53;;
12332;SDS011;6232;48.094;11.288;2023-07-13T13:34:59;7.30;;;1.60;;
12332;SDS011;6232;48.094;11.288;2023-07-13T13:37:46;2.93;;;1.50;;
12332;SDS011;6232;48.094;11.288;2023-07-13T13:40:32;3.73;;;1.60;;
12332;SDS011;6232;48.094;11.288;2023-07-13T13:43:25;2.10;;;1.50;;
12332;SDS011;6232;48.094;11.288;2023-07-13T13:46:16;1.30;;;1.20;;
12332;SDS011;6232;48.094;11.288;2023-07-13T13:49:02;1.13;;;1.03;;
12332;SDS011;6232;48.094;11.288;2023-07-13T13:51:48;2.60;;;1.47;;
12332;SDS011;6232;48.094;11.288;2023-07-13T13:54:33;3.40;;;1.60;;
12332;SDS011;6232;48.094;11.288;2023-07-13T13:57:19;1.60;;;1.20;;
12332;SDS011;6232;48.094;11.288;2023-07-13T14:00:05;2.30;;;1.37;;
12332;SDS011;6232;48.094;11.288;2023-07-13T14:02:50;6.37;;;2.13;;
12332;SDS011;6232;48.094;11.288;2023-07-13T14:05:37;3.50;;;1.70;;
12332;SDS011;6232;48.094;11.288;2023-07-13T14:08:25;2.27;;;1.33;;
12332;SDS011;6232;48.094;11.288;2023-07-13T14:11:15;5.03;;;1.53;;
12332;SDS011;6232;48.094;11.288;2023-07-13T14:14:02;3.20;;;1.67;;
12332;SDS011;6232;48.094;11.288;2023-07-13T14:16:49;1.43;;;1.30;;
12332;SDS011;6232;48.094;11.288;2023-07-13T14:19:38;3.37;;;1.60;;
12332;SDS011;6232;48.094;11.288;2023-07-13T14:22:24;3.10;;;1.30;;
12332;SDS011;6232;48.094;11.288;2023-07-13T14:25:14;4.20;;;1.50;;
12332;SDS011;6232;48.094;11.288;2023-07-13T14:27:59;2.10;;;1.27;;
12332;SDS011;6232;48.094;11.288;2023-07-13T14:30:46;3.35;;;1.73;;
12332;SDS011;6232;48.094;11.288;2023-07-13T14:33:32;1.63;;;1.20;;
12332;SDS011;6232;48.094;11.288;2023-07-13T14:36:28;1.70;;;1.23;;
12332;SDS011;6232;48.094;11.288;2023-07-13T14:39:18;1.70;;;1.30;;
12332;SDS011;6232;48.094;11.288;2023-07-13T14:42:04;2.50;;;1.30;;
12332;SDS011;6232;48.094;11.288;2023-07-13T14:44:50;2.80;;;1.40;;
12332;SDS011;6232;48.094;11.288;2023-07-13T14:47:35;2.13;;;1.30;;
12332;SDS011;6232;48.094;11.288;2023-07-13T14:50:23;2.03;;;1.53;;
12332;SDS011;6232;48.094;11.288;2023-07-13T14:53:10;1.33;;;1.20;;
12332;SDS011;6232;48.094;11.288;2023-07-13T14:55:56;7.13;;;1.50;;
12332;SDS011;6232;48.094;11.288;2023-07-13T14:58:42;2.40;;;1.13;;
12332;SDS011;6232;48.094;11.288;2023-07-13T15:01:27;5.63;;;1.83;;
12332;SDS011;6232;48.094;11.288;2023-07-13T15:04:13;1.83;;;1.30;;
12332;SDS011;6232;48.094;11.288;2023-07-13T15:07:00;5.10;;;1.80;;
12332;SDS011;6232;48.094;11.288;2023-07-13T15:09:47;4.00;;;1.60;;
12332;SDS011;6232;48.094;11.288;2023-07-13T15:12:33;1.67;;;1.20;;
12332;SDS011;6232;48.094;11.288;2023-07-13T15:15:18;2.00;;;1.43;;
12332;SDS011;6232;48.094;11.288;2023-07-13T15:18:04;2.87;;;1.40;;
12332;SDS011;6232;48.094;11.288;2023-07-13T15:20:50;2.90;;;1.50;;
12332;SDS011;6232;48.094;11.288;2023-07-13T15:23:37;2.60;;;1.70;;
12332;SDS011;6232;48.094;11.288;2023-07-13T15:26:23;5.13;;;1.87;;
12332;SDS011;6232;48.094;11.288;2023-07-13T15:29:08;2.90;;;1.53;;
12332;SDS011;6232;48.094;11.288;2023-07-13T15:31:54;2.70;;;1.80;;
12332;SDS011;6232;48.094;11.288;2023-07-13T15:34:40;3.33;;;1.73;;
12332;SDS011;6232;48.094;11.288;2023-07-13T15:37:26;4.10;;;1.57;;
12332;SDS011;6232;48.094;11.288;2023-07-13T15:40:12;2.27;;;1.50;;
12332;SDS011;6232;48.094;11.288;2023-07-13T15:42:58;2.50;;;1.60;;
12332;SDS011;6232;48.094;11.288;2023-07-13T15:45:44;2.17;;;1.83;;
12332;SDS011;6232;48.094;11.288;2023-07-13T15:48:31;1.87;;;1.67;;
12332;SDS011;6232;48.094;11.288;2023-07-13T15:54:08;5.53;;;1.57;;
12332;SDS011;6232;48.094;11.288;2023-07-13T15:56:59;3.37;;;1.30;;
12332;SDS011;6232;48.094;11.288;2023-07-13T15:59:45;6.00;;;1.30;;
12332;SDS011;6232;48.094;11.288;2023-07-13T16:02:31;3.13;;;1.40;;
12332;SDS011;6232;48.094;11.288;2023-07-13T16:05:17;2.13;;;1.30;;
12332;SDS011;6232;48.094;11.288;2023-07-13T16:08:04;2.30;;;1.50;;
12332;SDS011;6232;48.094;11.288;2023-07-13T16:10:50;1.40;;;1.17;;
12332;SDS011;6232;48.094;11.288;2023-07-13T16:13:36;4.23;;;1.60;;
12332;SDS011;6232;48.094;11.288;2023-07-13T16:16:26;7.03;;;1.63;;
12332;SDS011;6232;48.094;11.288;2023-07-13T16:19:12;3.63;;;2.20;;
12332;SDS011;6232;48.094;11.288;2023-07-13T16:21:57;3.20;;;1.57;;
12332;SDS011;6232;48.094;11.288;2023-07-13T16:24:45;3.90;;;1.60;;
12332;SDS011;6232;48.094;11.288;2023-07-13T16:27:31;3.23;;;1.50;;
12332;SDS011;6232;48.094;11.288;2023-07-13T16:30:22;4.07;;;1.53;;
12332;SDS011;6232;48.094;11.288;2023-07-13T16:33:09;3.07;;;1.60;;
12332;SDS011;6232;48.094;11.288;2023-07-13T16:35:55;3.10;;;1.53;;
12332;SDS011;6232;48.094;11.288;2023-07-13T16:38:42;1.97;;;1.70;;
12332;SDS011;6232;48.094;11.288;2023-07-13T16:41:28;4.30;;;1.87;;
12332;SDS011;6232;48.094;11.288;2023-07-13T16:44:16;1.83;;;1.20;;
12332;SDS011;6232;48.094;11.288;2023-07-13T16:47:04;1.37;;;1.27;;
12332;SDS011;6232;48.094;11.288;2023-07-13T16:49:50;2.27;;;1.83;;
12332;SDS011;6232;48.094;11.288;2023-07-13T16:52:37;1.93;;;1.40;;
12332;SDS011;6232;48.094;11.288;2023-07-13T16:55:22;1.70;;;1.40;;
12332;SDS011;6232;48.094;11.288;2023-07-13T16:58:14;2.40;;;1.80;;
12332;SDS011;6232;48.094;11.288;2023-07-13T17:01:00;4.20;;;1.77;;
12332;SDS011;6232;48.094;11.288;2023-07-13T17:03:49;3.77;;;1.90;;
12332;SDS011;6232;48.094;11.288;2023-07-13T17:06:34;4.47;;;2.10;;
12332;SDS011;6232;48.094;11.288;2023-07-13T17:09:20;3.23;;;2.00;;
12332;SDS011;6232;48.094;11.288;2023-07-13T17:12:08;3.57;;;1.60;;
12332;SDS011;6232;48.094;11.288;2023-07-13T17:14:54;3.23;;;2.20;;